Terminal Aerodrome Forecast
Issued by NWS

Current Version | Previous Version | Graphics & Text | Print | Product List | Glossary On
Versions: 1 2 3 4 5 6 7 8 9 10 11 12 13 14 15 16 17 18 19 20 21 22
000
FTUS41 KRNK 251727
TAFLWB
TAF
KLWB 251727Z 2518/2618 25010KT P6SM OVC050
     FM260200 30012G22KT P6SM OVC025
     FM260800 29006KT P6SM OVC040
     FM261500 28010KT P6SM SKC=

USA.gov is the U.S. government's official web portal to all federal, state and local government web resources and services.